Time;durP1;ratioP1;P1;durP2;ratioP2;P2;SDS_P1;SDS_P2;PMS_P1;PMS_P2;Temp;Humidity;BMP_temperature;BMP_pressure;BME280_temperature;BME280_humidity;BME280_pressure;Samples;Min_cycle;Max_cycle;Signal;HPM_P1;HPM_P2
2021/12/08 00:00:56;;;;;;;49.85;24.27;;;1.80;99.90;;;;;;5111310;28;20251;-49
2021/12/08 00:03:25;;;;;;;47.83;26.30;;;1.80;99.90;;;;;;5108481;28;20032;-49
2021/12/08 00:05:51;;;;;;;44.22;23.08;;;1.90;99.90;;;;;;5111925;28;20028;-50
2021/12/08 00:08:20;;;;;;;55.45;25.50;;;1.80;99.90;;;;;;5110889;28;20095;-50
2021/12/08 00:13:15;;;;;;;46.20;21.85;;;1.90;99.90;;;;;;5110707;28;20388;-49
2021/12/08 00:15:44;;;;;;;39.20;21.20;;;1.90;99.90;;;;;;5111428;28;20031;-49
2021/12/08 00:18:16;;;;;;;42.95;20.50;;;1.90;99.90;;;;;;5110846;28;20023;-50
2021/12/08 00:20:45;;;;;;;35.67;19.20;;;2.00;99.90;;;;;;5111273;28;20027;-49
2021/12/08 00:23:10;;;;;;;32.63;18.92;;;2.10;99.90;;;;;;5111084;28;20077;-49
2021/12/08 00:25:37;;;;;;;32.80;18.10;;;2.10;99.90;;;;;;5109402;28;20023;-51
2021/12/08 00:28:05;;;;;;;30.42;16.60;;;2.10;99.90;;;;;;5110558;28;20019;-49
2021/12/08 00:30:30;;;;;;;38.30;18.77;;;2.10;99.90;;;;;;5111001;28;20057;-50
2021/12/08 00:32:58;;;;;;;31.08;18.23;;;2.20;99.90;;;;;;5111180;28;20253;-46
2021/12/08 00:35:24;;;;;;;33.95;17.50;;;2.10;99.90;;;;;;5110853;28;20098;-47
2021/12/08 00:37:49;;;;;;;32.95;18.65;;;2.20;99.90;;;;;;5110315;28;20156;-50
2021/12/08 00:40:18;;;;;;;31.90;17.13;;;2.20;99.90;;;;;;5104088;28;20103;-49
2021/12/08 00:42:46;;;;;;;29.23;17.30;;;2.20;99.90;;;;;;5104804;28;20042;-48
2021/12/08 00:45:13;;;;;;;34.17;18.20;;;2.20;99.90;;;;;;5110951;28;20019;-50
2021/12/08 00:47:39;;;;;;;29.70;16.75;;;2.20;99.90;;;;;;5109978;28;20039;-48
2021/12/08 00:50:07;;;;;;;29.38;15.85;;;2.30;99.90;;;;;;5110492;27;20047;-50
2021/12/08 00:52:33;;;;;;;28.23;15.35;;;2.30;99.90;;;;;;5110419;28;20042;-50
2021/12/08 00:55:00;;;;;;;30.88;16.00;;;2.30;99.90;;;;;;5110196;28;20032;-49
2021/12/08 00:57:26;;;;;;;25.38;15.73;;;2.20;99.90;;;;;;5109984;28;20031;-48
2021/12/08 00:59:52;;;;;;;26.90;15.93;;;2.30;99.90;;;;;;5110349;27;20103;-48
2021/12/08 01:02:18;;;;;;;25.60;14.50;;;2.30;99.90;;;;;;5110129;28;20111;-47
2021/12/08 01:04:44;;;;;;;28.02;14.32;;;2.30;99.90;;;;;;5110424;28;20119;-49
2021/12/08 01:07:10;;;;;;;26.92;15.13;;;2.30;99.90;;;;;;5110104;28;20406;-49
2021/12/08 01:09:35;;;;;;;31.45;14.98;;;2.30;99.90;;;;;;5103307;28;20016;-47
2021/12/08 01:12:02;;;;;;;25.27;13.20;;;2.30;99.90;;;;;;5096637;28;20030;-47
2021/12/08 01:14:33;;;;;;;22.25;11.98;;;2.30;99.90;;;;;;5089589;28;20024;-48
2021/12/08 01:17:00;;;;;;;21.65;12.75;;;2.30;99.90;;;;;;5088362;28;20028;-48
2021/12/08 01:19:25;;;;;;;20.70;13.27;;;2.30;99.90;;;;;;5089453;28;20024;-48
2021/12/08 01:21:52;;;;;;;18.10;11.38;;;2.40;99.90;;;;;;5089583;28;20425;-50
2021/12/08 01:24:18;;;;;;;22.33;12.98;;;2.40;99.90;;;;;;5088532;28;20024;-47
2021/12/08 01:26:44;;;;;;;18.17;11.48;;;2.40;99.90;;;;;;5089438;28;20109;-47
2021/12/08 01:29:10;;;;;;;17.58;10.65;;;2.40;99.90;;;;;;5088905;28;20031;-47
2021/12/08 01:31:40;;;;;;;17.73;11.10;;;2.50;99.90;;;;;;5089537;28;20017;-48
2021/12/08 01:34:06;;;;;;;18.55;9.50;;;2.60;99.90;;;;;;5089410;28;20477;-48
2021/12/08 01:36:31;;;;;;;22.90;9.85;;;2.60;99.90;;;;;;5089464;28;20066;-48
2021/12/08 01:38:57;;;;;;;17.60;10.38;;;2.60;99.90;;;;;;5089692;28;20035;-48
2021/12/08 01:41:24;;;;;;;19.92;9.70;;;2.70;99.90;;;;;;5096794;28;20111;-48
2021/12/08 01:46:33;;;;;;;25.00;10.32;;;2.90;99.90;;;;;;5088908;28;20043;-48
2021/12/08 01:49:00;;;;;;;16.02;8.73;;;2.90;99.90;;;;;;5087626;28;20493;-51
2021/12/08 01:51:26;;;;;;;12.75;8.43;;;2.90;99.90;;;;;;5089281;28;20020;-51
2021/12/08 01:53:55;;;;;;;23.65;9.82;;;2.90;99.90;;;;;;5089149;28;20072;-50
2021/12/08 01:56:22;;;;;;;16.88;8.80;;;2.90;99.90;;;;;;5089350;28;20282;-50
2021/12/08 01:58:49;;;;;;;21.73;9.30;;;2.90;99.90;;;;;;5087561;28;20513;-51
2021/12/08 02:01:18;;;;;;;21.05;9.52;;;2.80;99.90;;;;;;5089231;28;20481;-48
2021/12/08 02:03:44;;;;;;;17.55;9.27;;;2.90;99.90;;;;;;5089316;28;20050;-48
2021/12/08 02:06:12;;;;;;;20.83;9.63;;;2.80;99.90;;;;;;5089472;28;20454;-48
2021/12/08 02:08:38;;;;;;;17.88;9.18;;;2.80;99.90;;;;;;5087183;28;20031;-48
2021/12/08 02:11:06;;;;;;;20.83;10.18;;;2.80;99.90;;;;;;5086970;28;20023;-48
2021/12/08 02:13:38;;;;;;;19.90;9.65;;;2.90;99.90;;;;;;5071030;28;20401;-47
2021/12/08 02:16:14;;;;;;;21.63;10.82;;;2.90;99.90;;;;;;5089138;28;20020;-50
2021/12/08 02:18:42;;;;;;;17.92;10.15;;;2.90;99.90;;;;;;5088628;28;20111;-48
2021/12/08 02:21:36;;;;;;;18.77;10.38;;;2.80;99.90;;;;;;5089258;28;20719;-50
2021/12/08 02:24:06;;;;;;;18.02;11.18;;;2.80;99.90;;;;;;5089094;28;20024;-48
2021/12/08 02:26:32;;;;;;;19.80;10.77;;;2.70;99.90;;;;;;5088998;28;20056;-51
2021/12/08 02:29:02;;;;;;;16.80;9.85;;;2.80;99.90;;;;;;5088502;28;20337;-50
2021/12/08 02:31:43;;;;;;;24.48;10.90;;;2.80;99.90;;;;;;5088989;28;20032;-50
2021/12/08 02:47:54;;;;;;;13.85;8.45;;;2.80;99.90;;;;;;5072082;28;20529;-49
2021/12/08 02:50:24;;;;;;;21.27;9.35;;;2.80;99.90;;;;;;5072327;28;20111;-48
2021/12/08 02:52:50;;;;;;;13.63;7.97;;;2.90;99.90;;;;;;5071361;28;20035;-49
2021/12/08 02:55:15;;;;;;;14.07;8.07;;;2.90;99.90;;;;;;5070708;28;20494;-48
2021/12/08 02:57:41;;;;;;;17.40;8.98;;;2.90;99.90;;;;;;5071653;28;20033;-48
2021/12/08 03:00:10;;;;;;;19.85;8.60;;;3.00;99.90;;;;;;5072137;28;20036;-48
2021/12/08 03:02:35;;;;;;;13.65;8.15;;;3.00;99.90;;;;;;5072037;28;20043;-48
2021/12/08 03:05:01;;;;;;;13.57;8.55;;;3.10;99.90;;;;;;5071998;28;20021;-49
2021/12/08 03:07:27;;;;;;;14.15;7.95;;;3.00;99.90;;;;;;5071413;28;20100;-48
2021/12/08 03:09:52;;;;;;;16.45;8.23;;;3.00;99.90;;;;;;5088543;28;20376;-48
2021/12/08 03:12:28;;;;;;;15.93;8.40;;;3.10;99.90;;;;;;5104542;28;20483;-48
2021/12/08 03:14:54;;;;;;;14.95;8.48;;;3.10;99.90;;;;;;5112563;28;20039;-48
2021/12/08 03:17:19;;;;;;;12.35;6.85;;;3.00;99.90;;;;;;5110780;28;20380;-49
2021/12/08 03:19:46;;;;;;;14.00;6.47;;;3.10;99.90;;;;;;5112390;28;20092;-48
2021/12/08 03:22:11;;;;;;;12.93;6.63;;;3.10;99.90;;;;;;5111164;28;20370;-48
2021/12/08 03:24:40;;;;;;;11.00;6.25;;;3.20;99.90;;;;;;5110675;28;20054;-50
2021/12/08 03:27:10;;;;;;;9.55;5.55;;;3.20;99.90;;;;;;5112221;28;20015;-48
2021/12/08 03:29:54;;;;;;;16.85;6.35;;;3.30;99.90;;;;;;5112311;28;20030;-49
2021/12/08 03:32:35;;;;;;;11.85;5.75;;;3.30;99.90;;;;;;5112247;28;20028;-49
2021/12/08 03:35:00;;;;;;;12.13;6.05;;;3.40;99.90;;;;;;5110882;28;20026;-48
2021/12/08 03:37:33;;;;;;;11.38;6.38;;;3.40;99.90;;;;;;5111374;28;20031;-49
2021/12/08 03:40:00;;;;;;;13.63;7.78;;;3.40;99.90;;;;;;5109080;28;20034;-48
2021/12/08 03:42:28;;;;;;;11.85;6.90;;;3.40;99.90;;;;;;5103418;28;20029;-48
2021/12/08 03:44:57;;;;;;;12.73;7.47;;;3.40;99.90;;;;;;5111820;28;20107;-49
2021/12/08 03:47:27;;;;;;;14.23;7.38;;;3.40;99.90;;;;;;5109963;28;20283;-49
2021/12/08 03:49:53;;;;;;;12.03;7.43;;;3.40;99.90;;;;;;5110435;28;20039;-48
2021/12/08 03:52:19;;;;;;;14.45;7.70;;;3.40;99.90;;;;;;5111707;28;20107;-49
2021/12/08 03:54:44;;;;;;;17.85;7.47;;;3.40;99.90;;;;;;5111448;28;20147;-48
2021/12/08 03:57:10;;;;;;;17.20;8.27;;;3.30;99.90;;;;;;5111712;28;20054;-48
2021/12/08 03:59:35;;;;;;;14.40;7.63;;;3.40;99.90;;;;;;5111577;28;20476;-48
2021/12/08 04:02:01;;;;;;;15.93;8.52;;;3.40;99.90;;;;;;5111432;28;20102;-48
2021/12/08 04:04:29;;;;;;;16.00;8.45;;;3.40;99.90;;;;;;5109928;28;20527;-48
2021/12/08 04:06:56;;;;;;;12.98;8.05;;;3.40;99.90;;;;;;5099572;28;20149;-49
2021/12/08 04:09:32;;;;;;;24.15;8.27;;;3.30;99.90;;;;;;5088654;28;20126;-48
2021/12/08 04:11:58;;;;;;;16.88;8.27;;;3.30;99.90;;;;;;5091271;28;20020;-47
2021/12/08 04:14:28;;;;;;;15.68;8.60;;;3.30;99.90;;;;;;5090901;28;20034;-51
2021/12/08 04:17:01;;;;;;;17.38;8.98;;;3.30;99.90;;;;;;5090521;28;20096;-48
2021/12/08 04:19:27;;;;;;;19.67;8.65;;;3.40;99.90;;;;;;5100888;28;20395;-49
2021/12/08 04:21:57;;;;;;;20.33;9.05;;;3.40;99.90;;;;;;5099288;28;20016;-48
2021/12/08 04:24:23;;;;;;;15.75;9.50;;;3.40;99.90;;;;;;5096723;28;20022;-48
2021/12/08 04:26:55;;;;;;;19.45;10.30;;;3.20;99.90;;;;;;5090278;28;20107;-48
2021/12/08 04:29:24;;;;;;;19.02;10.90;;;3.20;99.90;;;;;;5089644;28;20551;-48
2021/12/08 04:31:51;;;;;;;25.92;11.60;;;3.10;99.90;;;;;;5090042;28;20019;-48
2021/12/08 04:34:26;;;;;;;21.27;10.85;;;2.90;99.90;;;;;;5090058;28;20469;-49
2021/12/08 04:36:54;;;;;;;18.60;10.95;;;2.90;99.90;;;;;;5088306;28;20023;-48
2021/12/08 04:39:37;;;;;;;18.23;11.32;;;2.80;99.90;;;;;;5092725;28;20019;-48
2021/12/08 04:42:07;;;;;;;24.25;12.85;;;2.70;99.90;;;;;;5095754;28;20051;-48
2021/12/08 04:44:43;;;;;;;23.88;11.55;;;2.70;99.90;;;;;;5095885;28;20571;-48
2021/12/08 04:47:32;;;;;;;29.48;12.77;;;2.60;99.90;;;;;;5090060;28;20119;-49
2021/12/08 04:52:58;;;;;;;21.98;12.45;;;2.50;99.90;;;;;;5090728;28;20035;-49
2021/12/08 05:08:41;;;;;;;28.05;13.85;;;2.30;99.90;;;;;;5089475;28;20081;-48
2021/12/08 05:11:20;;;;;;;26.98;14.73;;;2.30;99.90;;;;;;5099028;28;20024;-49
2021/12/08 05:13:51;;;;;;;26.83;13.38;;;2.40;99.90;;;;;;5108791;28;20028;-48
2021/12/08 05:16:17;;;;;;;24.02;12.88;;;2.30;99.90;;;;;;5110295;28;20031;-48
2021/12/08 05:18:46;;;;;;;27.42;12.52;;;2.30;99.90;;;;;;5109458;28;20023;-51
2021/12/08 05:21:27;;;;;;;24.60;12.73;;;2.30;99.90;;;;;;5110314;28;20506;-49
2021/12/08 05:24:02;;;;;;;23.40;12.73;;;2.20;99.90;;;;;;5110229;28;20019;-48
2021/12/08 05:26:54;;;;;;;21.33;12.70;;;2.10;99.90;;;;;;5108536;28;20163;-51
2021/12/08 05:29:25;;;;;;;23.13;11.90;;;2.10;99.90;;;;;;5109728;28;20354;-48
2021/12/08 05:31:52;;;;;;;25.98;12.85;;;2.00;99.90;;;;;;5109833;28;20384;-48
2021/12/08 05:34:19;;;;;;;30.50;13.85;;;2.00;99.90;;;;;;5109567;28;20032;-49
2021/12/08 05:36:45;;;;;;;28.05;13.65;;;1.80;99.90;;;;;;5109698;28;20443;-49
2021/12/08 05:39:19;;;;;;;31.98;14.70;;;1.80;99.90;;;;;;5108435;28;20020;-49
2021/12/08 05:41:46;;;;;;;30.42;15.55;;;1.80;99.90;;;;;;5101014;28;20011;-48
2021/12/08 05:44:11;;;;;;;28.45;15.73;;;1.80;99.90;;;;;;5109477;28;20024;-51
2021/12/08 05:46:42;;;;;;;28.25;14.75;;;1.70;99.90;;;;;;5109463;28;20031;-50
2021/12/08 05:49:09;;;;;;;28.00;15.05;;;1.70;99.90;;;;;;5109137;28;20032;-50
2021/12/08 05:51:35;;;;;;;32.35;16.65;;;1.70;99.90;;;;;;5109440;28;20159;-50
2021/12/08 05:54:08;;;;;;;30.42;16.33;;;1.60;99.90;;;;;;5108960;28;20044;-49
2021/12/08 05:56:34;;;;;;;34.58;15.77;;;1.60;99.90;;;;;;5108965;28;20552;-49
2021/12/08 05:59:02;;;;;;;32.58;15.25;;;1.60;99.90;;;;;;5108887;28;20074;-52
2021/12/08 06:01:32;;;;;;;28.60;14.05;;;1.60;99.90;;;;;;5109276;28;20028;-51
2021/12/08 06:03:59;;;;;;;;;;;1.60;99.90;;;;;;5109729;28;20221;-50
2021/12/08 06:06:26;;;;;;;31.20;14.48;;;1.60;99.90;;;;;;5109388;28;19911;-51
2021/12/08 06:08:53;;;;;;;35.78;16.23;;;1.60;99.90;;;;;;5108036;28;20034;-53
2021/12/08 06:11:18;;;;;;;35.17;15.77;;;1.60;99.90;;;;;;5106509;28;20024;-54
2021/12/08 06:13:46;;;;;;;34.70;16.48;;;1.60;99.90;;;;;;5117595;27;20024;-53
2021/12/08 06:16:13;;;;;;;29.48;14.75;;;1.60;99.90;;;;;;5117588;27;20045;-53
2021/12/08 06:18:40;;;;;;;32.30;16.17;;;1.50;99.90;;;;;;5116889;27;20107;-54
2021/12/08 06:21:14;;;;;;;36.25;17.35;;;1.60;99.90;;;;;;5106281;28;20042;-54
2021/12/08 06:23:41;;;;;;;34.28;16.80;;;1.60;99.90;;;;;;5088815;28;20032;-55
2021/12/08 06:26:07;;;;;;;35.05;16.77;;;1.60;99.90;;;;;;5106527;28;20702;-54
2021/12/08 06:28:34;;;;;;;32.90;17.10;;;1.60;99.90;;;;;;5106078;28;20024;-54
2021/12/08 06:31:00;;;;;;;36.97;16.52;;;1.60;99.90;;;;;;5092355;28;20024;-54
2021/12/08 06:33:26;;;;;;;35.63;15.52;;;1.50;99.90;;;;;;5085532;28;20060;-54
2021/12/08 06:36:03;;;;;;;39.45;18.08;;;1.60;99.90;;;;;;5088729;28;20101;-54
2021/12/08 06:38:29;;;;;;;37.47;17.05;;;1.60;99.90;;;;;;5081877;28;20024;-54
2021/12/08 06:41:02;;;;;;;30.42;16.13;;;1.60;99.90;;;;;;5105403;28;20099;-53
2021/12/08 06:43:32;;;;;;;33.65;15.32;;;1.60;99.90;;;;;;5115379;27;20020;-53
2021/12/08 06:45:59;;;;;;;27.98;14.50;;;1.60;99.90;;;;;;5093981;28;20166;-53
2021/12/08 06:48:34;;;;;;;33.03;15.30;;;1.60;99.90;;;;;;5089793;28;20024;-53
2021/12/08 06:51:14;;;;;;;32.33;16.58;;;1.60;99.90;;;;;;5089155;28;20020;-53
2021/12/08 06:53:42;;;;;;;28.70;14.80;;;1.60;99.90;;;;;;5096864;28;20031;-53
2021/12/08 06:56:19;;;;;;;32.92;15.90;;;1.70;99.90;;;;;;5083647;28;20071;-53
2021/12/08 06:58:50;;;;;;;35.70;16.13;;;1.60;99.90;;;;;;5087420;28;20103;-53
2021/12/08 07:01:50;;;;;;;30.10;15.50;;;1.60;99.90;;;;;;5074644;28;20024;-53
2021/12/08 07:04:27;;;;;;;36.95;17.35;;;1.60;99.90;;;;;;5074251;28;20040;-53
2021/12/08 07:07:11;;;;;;;33.30;15.65;;;1.60;99.90;;;;;;5075252;28;20036;-53
2021/12/08 07:09:43;;;;;;;32.63;14.60;;;1.60;99.90;;;;;;5091593;28;20386;-53
2021/12/08 07:12:18;;;;;;;35.72;16.52;;;1.60;99.90;;;;;;5093325;27;20028;-53
2021/12/08 07:14:52;;;;;;;27.73;15.57;;;1.70;99.90;;;;;;5074618;28;20374;-53
2021/12/08 07:17:24;;;;;;;34.72;15.52;;;1.60;99.90;;;;;;5074067;28;20029;-54
2021/12/08 07:20:03;;;;;;;33.50;14.75;;;1.70;99.90;;;;;;5077998;28;20021;-53
2021/12/08 07:22:33;;;;;;;31.20;14.10;;;1.70;99.90;;;;;;5101084;28;20142;-53
2021/12/08 07:25:03;;;;;;;38.97;15.23;;;1.70;99.90;;;;;;5088422;28;20051;-54
2021/12/08 07:27:32;;;;;;;29.80;13.43;;;1.70;99.90;;;;;;5070601;28;20025;-53
2021/12/08 07:30:03;;;;;;;37.27;15.63;;;1.70;99.90;;;;;;5084428;28;20020;-53
2021/12/08 07:32:41;;;;;;;29.70;14.75;;;1.70;99.90;;;;;;5091400;28;20028;-53
2021/12/08 07:35:21;;;;;;;31.40;15.30;;;1.70;99.90;;;;;;5090921;28;20234;-54
2021/12/08 07:37:47;;;;;;;36.42;15.10;;;1.70;99.90;;;;;;5090735;28;20112;-54
2021/12/08 07:40:26;;;;;;;33.85;15.60;;;1.70;99.90;;;;;;5086024;28;20119;-54
2021/12/08 07:42:56;;;;;;;30.15;13.68;;;1.70;99.90;;;;;;5094917;28;20363;-53
2021/12/08 07:45:37;;;;;;;33.25;14.48;;;1.80;99.90;;;;;;5085241;28;20422;-54
2021/12/08 07:48:08;;;;;;;28.95;13.98;;;1.80;99.90;;;;;;5070389;28;20044;-54
2021/12/08 07:50:48;;;;;;;34.35;15.02;;;1.80;99.90;;;;;;5089008;28;20339;-54
2021/12/08 07:53:16;;;;;;;30.13;15.15;;;1.80;99.90;;;;;;5090503;28;20034;-54
2021/12/08 07:55:46;;;;;;;31.17;14.38;;;1.80;99.90;;;;;;5089798;28;20034;-54
2021/12/08 07:58:15;;;;;;;32.30;16.08;;;1.90;99.90;;;;;;5090213;28;20040;-54
2021/12/08 08:00:52;;;;;;;27.90;13.50;;;1.90;99.90;;;;;;5090162;28;20115;-54
2021/12/08 08:03:20;;;;;;;33.35;14.80;;;1.90;99.90;;;;;;5090858;28;20035;-54
2021/12/08 08:05:49;;;;;;;36.80;14.27;;;1.80;99.90;;;;;;5089177;28;20081;-54
2021/12/08 08:08:18;;;;;;;32.08;15.70;;;1.90;99.90;;;;;;5071712;28;20052;-54
2021/12/08 08:10:48;;;;;;;28.88;13.68;;;1.90;99.90;;;;;;5098127;28;20034;-54
2021/12/08 08:13:16;;;;;;;;;;;1.90;99.90;;;;;;5100951;28;20439;-54
2021/12/08 08:15:45;;;;;;;29.45;13.30;;;2.00;99.90;;;;;;5098347;28;20376;-54
2021/12/08 08:18:14;;;;;;;27.13;14.65;;;2.00;99.90;;;;;;5101962;28;20127;-54
2021/12/08 08:20:48;;;;;;;27.95;14.05;;;2.00;99.90;;;;;;5086950;28;20068;-54
2021/12/08 08:23:17;;;;;;;28.63;12.82;;;2.00;99.90;;;;;;5070133;28;20024;-54
2021/12/08 08:25:44;;;;;;;30.15;14.65;;;1.90;99.90;;;;;;5072406;28;20033;-54
2021/12/08 08:28:11;;;;;;;31.52;13.75;;;2.00;99.90;;;;;;5089565;28;20070;-54
2021/12/08 08:30:43;;;;;;;29.58;15.23;;;2.00;99.90;;;;;;5077847;28;20104;-54
2021/12/08 08:33:09;;;;;;;29.98;14.18;;;2.00;99.90;;;;;;5089789;28;20028;-55
2021/12/08 08:35:43;;;;;;;30.23;13.95;;;2.00;99.90;;;;;;5089441;28;20105;-54
2021/12/08 08:38:33;;;;;;;28.83;13.60;;;2.00;99.90;;;;;;5072137;28;20055;-54
2021/12/08 08:41:05;;;;;;;25.90;14.13;;;2.00;99.90;;;;;;5093814;28;20035;-54
2021/12/08 08:43:32;;;;;;;33.95;16.92;;;2.00;99.90;;;;;;5096318;28;20131;-54
2021/12/08 08:46:07;;;;;;;28.73;15.40;;;2.00;99.90;;;;;;5089311;28;20097;-54
2021/12/08 08:48:46;;;;;;;31.55;15.68;;;2.00;99.90;;;;;;5087290;28;20026;-54
2021/12/08 08:51:18;;;;;;;31.35;15.25;;;2.10;99.90;;;;;;5078292;28;20093;-54
2021/12/08 08:53:47;;;;;;;33.10;16.52;;;2.20;99.90;;;;;;5088833;28;20186;-54
2021/12/08 08:56:17;;;;;;;28.60;14.60;;;2.30;99.90;;;;;;5086789;28;20024;-54
2021/12/08 08:58:47;;;;;;;40.15;16.55;;;2.30;99.90;;;;;;5088257;28;20287;-54
2021/12/08 09:01:27;;;;;;;31.47;15.87;;;2.40;99.90;;;;;;5089322;28;20024;-54
2021/12/08 09:04:01;;;;;;;30.45;14.85;;;2.50;99.90;;;;;;5086310;28;20842;-54
2021/12/08 09:06:30;;;;;;;31.23;14.18;;;2.50;99.90;;;;;;5088998;28;20042;-56
2021/12/08 09:08:56;;;;;;;35.08;16.83;;;2.60;99.90;;;;;;5087752;28;20027;-54
2021/12/08 09:11:29;;;;;;;32.15;15.43;;;2.60;99.90;;;;;;5090191;28;20102;-55
2021/12/08 09:14:03;;;;;;;29.50;14.32;;;2.60;99.90;;;;;;5089405;28;20454;-54
2021/12/08 09:16:41;;;;;;;31.85;13.95;;;2.60;99.90;;;;;;5085376;28;20101;-54
2021/12/08 09:19:14;;;;;;;30.85;15.10;;;2.50;99.90;;;;;;5088390;28;20123;-54
2021/12/08 09:22:08;;;;;;;35.20;13.93;;;2.40;99.90;;;;;;5087261;28;20404;-54
2021/12/08 09:24:47;;;;;;;31.35;14.43;;;2.30;99.90;;;;;;5086093;28;20036;-54
2021/12/08 09:27:17;;;;;;;30.65;14.68;;;2.40;99.90;;;;;;5086397;28;20090;-54
2021/12/08 09:29:50;;;;;;;29.20;13.30;;;2.40;99.90;;;;;;5087645;28;20032;-54
2021/12/08 09:32:24;;;;;;;27.85;14.32;;;2.50;99.90;;;;;;5088144;28;20075;-54
2021/12/08 09:34:59;;;;;;;29.48;14.45;;;2.50;99.90;;;;;;5086150;28;20114;-54
2021/12/08 09:37:29;;;;;;;27.52;12.93;;;2.40;99.90;;;;;;5070106;28;20028;-54
2021/12/08 09:40:06;;;;;;;19.60;10.10;;;2.40;99.90;;;;;;5079527;28;20129;-54
2021/12/08 09:42:39;;;;;;;25.10;13.40;;;2.50;99.90;;;;;;5091253;28;20028;-54
2021/12/08 09:45:13;;;;;;;29.42;12.52;;;2.50;99.90;;;;;;5088215;28;20149;-55
2021/12/08 09:47:39;;;;;;;27.33;12.77;;;2.50;99.90;;;;;;5095982;28;20569;-54
2021/12/08 09:50:08;;;;;;;27.38;14.20;;;2.60;99.90;;;;;;5090506;28;20257;-54
2021/12/08 09:52:34;;;;;;;25.65;13.27;;;2.60;99.90;;;;;;5083284;28;20103;-54
2021/12/08 09:55:01;;;;;;;30.63;13.27;;;2.60;99.90;;;;;;5096026;28;20107;-54
2021/12/08 09:57:29;;;;;;;27.83;14.00;;;2.70;99.90;;;;;;5108537;28;20027;-54
2021/12/08 09:59:56;;;;;;;26.40;13.55;;;2.70;99.90;;;;;;5102967;28;20020;-54
2021/12/08 10:02:32;;;;;;;22.10;12.98;;;2.80;99.90;;;;;;5088626;28;20032;-54
2021/12/08 10:05:15;;;;;;;30.80;13.88;;;2.90;99.90;;;;;;5087824;28;20016;-54
2021/12/08 10:07:43;;;;;;;24.05;12.18;;;2.90;99.90;;;;;;5091123;28;20474;-54
2021/12/08 10:10:12;;;;;;;20.88;11.20;;;3.00;99.90;;;;;;5094188;28;20035;-55
2021/12/08 10:12:38;;;;;;;26.67;11.88;;;2.90;99.90;;;;;;5101332;28;20024;-55
2021/12/08 10:15:08;;;;;;;22.40;11.75;;;3.00;99.90;;;;;;5110788;28;20039;-54
2021/12/08 10:17:34;;;;;;;;;;;3.00;99.90;;;;;;5079174;28;20280;-55
2021/12/08 10:20:10;;;;;;;19.50;11.13;;;2.90;99.90;;;;;;5087881;28;20282;-55
2021/12/08 10:22:37;;;;;;;22.17;11.27;;;3.00;99.90;;;;;;5076243;28;20031;-55
2021/12/08 10:25:16;;;;;;;19.55;11.02;;;3.20;99.90;;;;;;5084617;28;20769;-55
2021/12/08 10:28:12;;;;;;;23.00;12.03;;;3.30;99.90;;;;;;5066580;28;20032;-54
2021/12/08 10:30:46;;;;;;;24.02;10.88;;;3.30;99.90;;;;;;5068730;28;20024;-54
2021/12/08 10:34:04;;;;;;;21.95;9.88;;;3.30;99.90;;;;;;5069617;28;20021;-55
2021/12/08 10:36:45;;;;;;;18.00;9.93;;;3.40;99.90;;;;;;5065448;28;20039;-55
2021/12/08 10:39:13;;;;;;;23.95;10.50;;;3.40;99.90;;;;;;5064775;28;20623;-55
2021/12/08 10:41:46;;;;;;;17.10;10.02;;;3.30;99.90;;;;;;5076739;28;20032;-54
2021/12/08 10:44:12;;;;;;;23.48;10.70;;;3.30;99.90;;;;;;5089838;28;20028;-55
2021/12/08 10:46:38;;;;;;;20.35;10.27;;;3.30;99.90;;;;;;5086455;28;20031;-54
2021/12/08 10:49:21;;;;;;;20.88;10.32;;;3.30;99.90;;;;;;5086929;28;20023;-54
2021/12/08 10:54:33;;;;;;;16.98;9.38;;;3.30;99.90;;;;;;5089186;28;20035;-53
2021/12/08 10:57:04;;;;;;;21.60;10.02;;;3.30;99.90;;;;;;5078151;28;20024;-53
2021/12/08 11:00:00;;;;;;;13.75;8.93;;;3.20;99.90;;;;;;5089540;28;20028;-53
2021/12/08 11:02:46;;;;;;;17.67;9.43;;;3.20;99.90;;;;;;5095189;28;20023;-53
2021/12/08 11:05:23;;;;;;;13.75;8.18;;;3.30;99.90;;;;;;5102320;28;20106;-53
2021/12/08 11:08:02;;;;;;;13.90;9.35;;;3.30;99.90;;;;;;5100303;28;20099;-53
2021/12/08 11:10:29;;;;;;;20.25;10.95;;;3.40;99.90;;;;;;5095605;28;20350;-53
2021/12/08 11:12:57;;;;;;;18.58;9.98;;;3.50;99.90;;;;;;5102048;28;20119;-55
2021/12/08 11:15:24;;;;;;;22.33;11.65;;;3.50;99.90;;;;;;5098691;28;20055;-55
2021/12/08 11:18:08;;;;;;;23.48;13.13;;;3.50;99.90;;;;;;5097805;28;20055;-53
2021/12/08 11:20:39;;;;;;;31.25;15.48;;;3.60;99.90;;;;;;5105667;28;20497;-55
2021/12/08 11:23:08;;;;;;;30.95;15.35;;;3.60;99.90;;;;;;5112172;28;20055;-55
2021/12/08 11:25:46;;;;;;;25.35;14.32;;;3.80;99.90;;;;;;5103759;28;20424;-55
2021/12/08 11:28:22;;;;;;;23.83;13.93;;;3.80;99.90;;;;;;5094964;28;20020;-53
2021/12/08 11:30:49;;;;;;;25.90;13.18;;;4.00;99.90;;;;;;5101890;28;20103;-55
2021/12/08 11:33:21;;;;;;;24.60;13.90;;;4.10;99.90;;;;;;5098888;28;20481;-55
2021/12/08 11:35:48;;;;;;;26.75;13.43;;;4.20;99.90;;;;;;5085438;28;20036;-53
2021/12/08 11:38:13;;;;;;;26.20;12.20;;;4.30;99.90;;;;;;5088777;28;20036;-55
2021/12/08 11:40:40;;;;;;;19.88;11.38;;;4.50;99.90;;;;;;5090227;28;20047;-54
2021/12/08 11:43:15;;;;;;;14.32;8.13;;;4.70;99.90;;;;;;5094662;28;20032;-55
2021/12/08 11:45:42;;;;;;;17.77;9.93;;;4.60;99.90;;;;;;5091517;28;20020;-53
2021/12/08 11:48:22;;;;;;;23.00;10.50;;;4.70;99.90;;;;;;5089797;28;20032;-53
2021/12/08 11:50:47;;;;;;;13.73;7.72;;;4.90;99.90;;;;;;5082696;28;20024;-54
2021/12/08 11:53:21;;;;;;;14.02;7.28;;;4.90;99.90;;;;;;5105508;28;20022;-55
2021/12/08 11:55:46;;;;;;;15.90;6.40;;;5.00;99.90;;;;;;5094565;28;20032;-53
2021/12/08 11:58:12;;;;;;;12.18;6.78;;;5.00;99.90;;;;;;5090525;28;20054;-54
2021/12/08 12:00:40;;;;;;;11.65;6.60;;;4.90;99.90;;;;;;5096205;28;20020;-55
2021/12/08 12:03:10;;;;;;;12.32;7.30;;;4.50;99.90;;;;;;5072428;28;20062;-54
2021/12/08 12:05:46;;;;;;;11.77;7.20;;;4.50;99.90;;;;;;5072485;28;20062;-53
2021/12/08 12:08:15;;;;;;;10.93;6.22;;;4.50;99.90;;;;;;5070865;28;20017;-53
2021/12/08 12:10:48;;;;;;;10.65;6.15;;;4.60;99.90;;;;;;5090483;28;20020;-53
2021/12/08 12:13:14;;;;;;;10.95;6.63;;;4.60;99.90;;;;;;5104434;28;20032;-53
2021/12/08 12:15:44;;;;;;;12.25;6.63;;;4.60;99.90;;;;;;5076675;28;20024;-53
2021/12/08 12:18:10;;;;;;;13.70;6.65;;;4.30;99.90;;;;;;5091395;28;20020;-53
2021/12/08 12:20:39;;;;;;;12.75;6.75;;;4.20;99.90;;;;;;5092795;28;20060;-53
2021/12/08 12:23:16;;;;;;;13.45;7.13;;;4.20;99.90;;;;;;5076628;28;20067;-53
2021/12/08 12:26:07;;;;;;;10.55;5.95;;;4.20;99.90;;;;;;5080619;28;20025;-54
2021/12/08 12:28:41;;;;;;;13.00;6.47;;;4.20;99.90;;;;;;5090779;28;20544;-54
2021/12/08 12:31:22;;;;;;;11.90;7.30;;;4.20;99.90;;;;;;5072157;28;20174;-53
2021/12/08 12:33:48;;;;;;;;;;;4.20;99.90;;;;;;5072509;28;20040;-53
2021/12/08 12:36:34;;;;;;;12.63;7.18;;;4.20;99.90;;;;;;5073163;28;20102;-53
2021/12/08 12:39:12;;;;;;;12.60;6.50;;;4.20;99.90;;;;;;5076616;28;20355;-55
2021/12/08 12:41:38;;;;;;;13.05;6.22;;;4.10;99.90;;;;;;5096854;28;20054;-53
2021/12/08 12:44:23;;;;;;;15.38;7.63;;;4.10;99.90;;;;;;5093573;28;20482;-53
2021/12/08 12:47:04;;;;;;;11.40;6.50;;;4.10;99.90;;;;;;5091486;28;20481;-53
2021/12/08 12:49:31;;;;;;;14.82;6.57;;;4.00;99.90;;;;;;5076331;28;20074;-54
2021/12/08 12:52:02;;;;;;;12.02;6.82;;;4.00;99.90;;;;;;5083999;28;20051;-53
2021/12/08 12:54:28;;;;;;;13.63;7.18;;;4.00;99.90;;;;;;5103678;28;20020;-53
2021/12/08 12:56:56;;;;;;;20.15;7.45;;;4.00;99.90;;;;;;5082331;28;20028;-53
2021/12/08 12:59:25;;;;;;;14.95;7.03;;;4.00;99.90;;;;;;5087395;28;20024;-53
2021/12/08 13:02:14;;;;;;;11.00;6.75;;;4.00;99.90;;;;;;5084570;28;20033;-53
2021/12/08 13:05:01;;;;;;;13.27;8.00;;;4.00;99.90;;;;;;5070746;28;20493;-53
2021/12/08 13:07:29;;;;;;;13.15;7.05;;;3.90;99.90;;;;;;5091217;28;20028;-52
2021/12/08 13:09:56;;;;;;;14.02;8.40;;;4.00;99.90;;;;;;5093110;28;20036;-53
2021/12/08 13:12:38;;;;;;;18.02;9.00;;;4.00;99.90;;;;;;5100017;28;20453;-53
2021/12/08 13:15:19;;;;;;;18.65;9.50;;;4.00;99.90;;;;;;5088576;28;20650;-53
2021/12/08 13:18:02;;;;;;;19.13;10.90;;;4.00;99.90;;;;;;5070589;28;20032;-52
2021/12/08 13:20:30;;;;;;;21.73;10.68;;;4.00;99.90;;;;;;5076211;28;20071;-53
2021/12/08 13:23:02;;;;;;;23.45;10.70;;;4.10;99.90;;;;;;5070898;28;20035;-53
2021/12/08 13:25:40;;;;;;;24.52;11.73;;;4.10;99.90;;;;;;5070897;28;20044;-53
2021/12/08 13:28:25;;;;;;;24.90;12.07;;;4.10;99.90;;;;;;5070427;28;20025;-53
2021/12/08 13:31:37;;;;;;;27.95;12.82;;;4.00;99.90;;;;;;5082454;28;20052;-53
2021/12/08 13:34:05;;;;;;;18.83;10.93;;;4.00;99.90;;;;;;5070839;28;20056;-53
2021/12/08 13:36:43;;;;;;;22.83;12.98;;;3.90;99.90;;;;;;5070593;28;20047;-53
2021/12/08 13:39:27;;;;;;;28.40;14.15;;;3.90;99.90;;;;;;5072736;28;20027;-53